Time;durP1;ratioP1;P1;durP2;ratioP2;P2;SDS_P1;SDS_P2;PMS_P1;PMS_P2;Temp;Humidity;BMP_temperature;BMP_pressure;BME280_temperature;BME280_humidity;BME280_pressure;Samples;Min_cycle;Max_cycle;Signal;HPM_P1;HPM_P2
2023/09/30 00:00:09;;;;;;;1.80;1.70;;;;;;;21.09;65.77;99696.78;5073935;28;20227;-67
2023/09/30 00:02:35;;;;;;;1.23;1.23;;;;;;;21.04;65.46;99699.69;5073658;28;20244;-67
2023/09/30 00:05:04;;;;;;;1.60;1.50;;;;;;;20.92;65.66;99690.94;5073836;28;20207;-67
2023/09/30 00:07:31;;;;;;;2.13;1.57;;;;;;;20.85;66.25;99694.91;5076479;28;20289;-67
2023/09/30 00:09:57;;;;;;;1.67;1.57;;;;;;;20.74;66.22;99688.75;5093495;28;20264;-67
2023/09/30 00:12:24;;;;;;;3.03;1.17;;;;;;;20.64;66.32;99693.75;5093929;28;20201;-67
2023/09/30 00:14:51;;;;;;;1.23;1.23;;;;;;;20.51;66.58;99685.09;5085041;28;20202;-67
2023/09/30 00:17:18;;;;;;;8.90;1.43;;;;;;;20.49;66.88;99686.09;5074108;28;20207;-67
2023/09/30 00:19:45;;;;;;;3.37;1.33;;;;;;;20.45;66.64;99685.50;5092740;28;20195;-67
2023/09/30 00:22:13;;;;;;;2.30;1.60;;;;;;;20.47;67.37;99693.19;5093159;28;20681;-67
2023/09/30 00:24:40;;;;;;;1.97;1.63;;;;;;;20.43;66.05;99687.34;5093706;28;20698;-67
2023/09/30 00:27:06;;;;;;;3.17;1.30;;;;;;;20.42;66.34;99685.66;5093563;28;21824;-67
2023/09/30 00:29:33;;;;;;;1.47;1.47;;;;;;;20.40;66.41;99684.94;5093394;28;20298;-67
2023/09/30 00:32:00;;;;;;;1.87;1.77;;;;;;;20.37;66.30;99682.53;5092798;28;20204;-67
2023/09/30 00:34:27;;;;;;;1.63;1.53;;;;;;;20.39;66.68;99680.66;5093649;28;20602;-67
2023/09/30 00:36:53;;;;;;;1.60;1.50;;;;;;;20.38;66.97;99681.63;5093293;28;20202;-67
2023/09/30 00:39:22;;;;;;;1.50;1.37;;;;;;;20.41;67.15;99678.81;5093037;28;20255;-67
2023/09/30 00:41:49;;;;;;;4.40;1.70;;;;;;;20.44;67.24;99678.59;5093618;28;20194;-67
2023/09/30 00:44:16;;;;;;;1.47;1.37;;;;;;;20.46;67.26;99676.72;5092861;28;20263;-67
2023/09/30 00:46:42;;;;;;;7.93;2.00;;;;;;;20.49;67.11;99679.13;5093428;28;20694;-67
2023/09/30 00:49:10;;;;;;;1.70;1.60;;;;;;;20.48;66.96;99684.44;5092600;28;20203;-67
2023/09/30 00:51:38;;;;;;;1.33;1.23;;;;;;;20.45;66.71;99685.50;5092850;28;20236;-67
2023/09/30 00:54:05;;;;;;;3.43;1.30;;;;;;;20.46;66.77;99676.72;5092649;28;20201;-67
2023/09/30 00:56:34;;;;;;;1.33;1.33;;;;;;;20.48;66.88;99681.84;5092891;28;20257;-67
2023/09/30 00:59:03;;;;;;;3.40;0.90;;;;;;;20.53;66.30;99678.00;5092610;28;20248;-67
2023/09/30 01:01:30;;;;;;;2.10;2.00;;;;;;;20.59;65.96;99688.00;5092685;28;20198;-67
2023/09/30 01:03:58;;;;;;;1.63;1.53;;;;;;;20.62;66.04;99687.78;5092761;28;20217;-67
2023/09/30 01:06:25;;;;;;;1.40;1.37;;;;;;;20.66;65.89;99686.66;5092509;28;20256;-67
2023/09/30 01:08:52;;;;;;;1.53;1.27;;;;;;;20.69;65.70;99686.44;5092019;28;20235;-67
2023/09/30 01:11:19;;;;;;;1.87;1.77;;;;;;;20.73;65.29;99690.53;5089655;28;20201;-67
2023/09/30 01:13:47;;;;;;;1.50;1.40;;;;;;;20.76;65.09;99690.31;5092772;28;20564;-67
2023/09/30 01:16:14;;;;;;;1.57;1.47;;;;;;;20.78;64.91;99688.44;5091544;28;20207;-67
2023/09/30 01:18:42;;;;;;;1.47;1.37;;;;;;;20.80;64.95;99689.19;5091910;28;20206;-67
2023/09/30 01:21:09;;;;;;;1.53;1.43;;;;;;;20.82;65.30;99683.84;5092056;28;20245;-67
2023/09/30 01:23:38;;;;;;;1.43;1.33;;;;;;;20.83;64.97;99691.56;5092122;28;20233;-67
2023/09/30 01:26:06;;;;;;;3.67;1.47;;;;;;;20.85;64.98;99687.09;5092191;28;20674;-67
2023/09/30 01:28:33;;;;;;;3.07;1.77;;;;;;;20.85;65.21;99684.47;5090751;28;20201;-67
2023/09/30 01:31:00;;;;;;;1.70;1.60;;;;;;;20.88;64.97;99683.44;5086985;28;20203;-67
2023/09/30 01:33:28;;;;;;;1.53;1.53;;;;;;;20.86;64.77;99686.16;5090932;28;20212;-67
2023/09/30 01:35:55;;;;;;;2.43;2.33;;;;;;;20.86;64.84;99690.53;5091917;28;20669;-67
2023/09/30 01:38:21;;;;;;;1.53;1.43;;;;;;;20.83;65.17;99686.38;5092033;28;20640;-67
2023/09/30 01:40:50;;;;;;;1.60;1.60;;;;;;;20.90;64.28;99686.78;5090929;28;20211;-67
2023/09/30 01:43:17;;;;;;;2.63;2.20;;;;;;;20.95;64.25;99690.75;5090553;28;20640;-67
2023/09/30 01:45:44;;;;;;;1.73;1.70;;;;;;;20.98;64.83;99691.47;5092352;28;20280;-67
2023/09/30 01:48:12;;;;;;;1.37;1.33;;;;;;;20.93;63.83;99684.81;5090893;28;20282;-67
2023/09/30 01:50:39;;;;;;;1.80;1.70;;;;;;;21.03;63.72;99694.59;5077140;28;20245;-67
2023/09/30 01:53:06;;;;;;;2.13;2.00;;;;;;;21.03;64.57;99692.00;5071744;28;20637;-67
2023/09/30 01:55:33;;;;;;;1.53;1.53;;;;;;;21.08;63.94;99697.72;5071600;28;20203;-67
2023/09/30 01:58:01;;;;;;;4.13;2.00;;;;;;;21.13;64.41;99698.28;5086040;28;20206;-67
2023/09/30 02:00:29;;;;;;;1.87;1.77;;;;;;;21.16;64.64;99690.25;5092062;28;20214;-67
2023/09/30 02:02:55;;;;;;;2.03;1.43;;;;;;;21.20;64.34;99694.28;5091773;28;20232;-67
2023/09/30 02:05:23;;;;;;;7.70;2.37;;;;;;;21.23;64.30;99689.69;5091660;28;20314;-67
2023/09/30 02:07:50;;;;;;;1.60;1.50;;;;;;;21.25;63.96;99687.00;5090879;28;20311;-67
2023/09/30 02:10:18;;;;;;;1.90;1.80;;;;;;;21.23;64.07;99679.28;5090068;28;20670;-67
2023/09/30 02:12:45;;;;;;;1.70;1.60;;;;;;;21.26;64.26;99691.28;5086257;28;20199;-67
2023/09/30 02:15:13;;;;;;;1.77;1.67;;;;;;;21.26;63.56;99683.47;5086905;28;20624;-67
2023/09/30 02:17:45;;;;;;;1.23;1.23;;;;;;;21.24;64.14;99680.09;5091397;28;20203;-67
2023/09/30 02:20:18;;;;;;;1.40;1.30;;;;;;;21.28;63.63;99678.97;5091528;28;20225;-67
2023/09/30 02:22:47;;;;;;;1.50;1.50;;;;;;;21.24;63.55;99687.94;5091272;28;20277;-67
2023/09/30 02:25:14;;;;;;;1.63;1.53;;;;;;;21.21;63.95;99688.16;5090982;28;20689;-67
2023/09/30 02:27:42;;;;;;;1.60;1.50;;;;;;;21.14;63.84;99679.06;5090682;28;20199;-67
2023/09/30 02:30:11;;;;;;;1.27;1.23;;;;;;;21.07;64.17;99672.56;5090996;28;20359;-67
2023/09/30 02:32:40;;;;;;;1.43;1.43;;;;;;;21.15;64.03;99685.97;5091295;28;20632;-67
2023/09/30 02:35:08;;;;;;;1.10;1.10;;;;;;;21.02;64.07;99670.31;5081832;28;20287;-67
2023/09/30 02:37:36;;;;;;;2.53;2.43;;;;;;;21.13;64.05;99677.44;5079935;28;20192;-67
2023/09/30 02:40:05;;;;;;;1.63;1.53;;;;;;;21.09;64.00;99686.34;5089875;28;20234;-67
2023/09/30 02:42:32;;;;;;;1.70;1.60;;;;;;;21.01;64.05;99684.25;5090687;28;20284;-67
2023/09/30 02:45:01;;;;;;;3.97;2.23;;;;;;;21.03;63.86;99686.78;5090682;28;20211;-67
2023/09/30 02:47:28;;;;;;;1.67;1.57;;;;;;;20.99;63.91;99690.53;5090145;28;20199;-67
2023/09/30 02:49:58;;;;;;;1.87;1.77;;;;;;;20.94;64.38;99688.22;5090542;28;20203;-67
2023/09/30 02:52:25;;;;;;;1.70;1.60;;;;;;;20.83;64.35;99665.53;5090572;28;20199;-67
2023/09/30 02:54:52;;;;;;;1.67;1.57;;;;;;;20.88;64.52;99683.44;5090730;28;20284;-67
2023/09/30 02:57:19;;;;;;;2.80;1.77;;;;;;;20.84;64.77;99687.22;5090167;28;20285;-67
2023/09/30 02:59:46;;;;;;;2.13;1.90;;;;;;;20.80;64.89;99681.38;5090239;28;20203;-67
2023/09/30 03:02:12;;;;;;;2.77;1.77;;;;;;;20.75;65.33;99683.44;5089608;28;20691;-67
2023/09/30 03:04:39;;;;;;;1.57;1.47;;;;;;;20.75;64.89;99682.59;5070691;28;20272;-67
2023/09/30 03:07:08;;;;;;;2.30;2.20;;;;;;;20.68;64.92;99679.56;5085367;28;20724;-67
2023/09/30 03:09:35;;;;;;;2.00;1.70;;;;;;;20.64;64.81;99677.28;5090324;28;20317;-67
2023/09/30 03:12:04;;;;;;;2.23;2.10;;;;;;;20.59;65.25;99672.38;5090660;28;20210;-67
2023/09/30 03:14:30;;;;;;;1.70;1.60;;;;;;;20.54;66.00;99679.66;5090475;28;20194;-67
2023/09/30 03:16:57;;;;;;;4.17;1.83;;;;;;;20.48;65.83;99674.88;5090038;28;20200;-67
2023/09/30 03:19:24;;;;;;;1.60;1.60;;;;;;;20.43;66.22;99677.75;5090381;28;20260;-67
2023/09/30 03:21:51;;;;;;;3.30;2.27;;;;;;;20.38;66.16;99673.81;5077049;28;20625;-67
2023/09/30 03:24:21;;;;;;;2.30;2.10;;;;;;;20.32;66.13;99674.22;5070065;28;20222;-67
2023/09/30 03:26:47;;;;;;;2.10;2.00;;;;;;;20.28;66.62;99672.75;5090453;28;20209;-67
2023/09/30 03:29:14;;;;;;;3.00;2.80;;;;;;;20.20;66.51;99673.19;5089136;28;20207;-67
2023/09/30 03:31:41;;;;;;;2.20;2.00;;;;;;;20.07;66.44;99679.28;5091292;28;20559;-67
2023/09/30 03:34:08;;;;;;;3.73;1.87;;;;;;;19.97;67.05;99673.03;5094308;28;20218;-67
2023/09/30 03:36:35;;;;;;;1.80;1.70;;;;;;;19.85;67.62;99675.47;5093681;28;20197;-67
2023/09/30 03:39:05;;;;;;;3.40;1.43;;;;;;;19.80;68.02;99677.56;5094388;28;20198;-67
2023/09/30 03:41:35;;;;;;;1.50;1.40;;;;;;;19.76;68.75;99683.88;5094356;28;20206;-67
2023/09/30 03:44:02;;;;;;;2.13;2.07;;;;;;;19.73;68.32;99688.44;5094308;28;20228;-67
2023/09/30 03:46:29;;;;;;;2.27;2.07;;;;;;;19.73;68.71;99691.88;5093406;28;20232;-67
2023/09/30 03:48:56;;;;;;;2.17;2.07;;;;;;;19.74;68.88;99683.13;5094915;28;20194;-67
2023/09/30 03:51:25;;;;;;;2.37;2.17;;;;;;;19.75;68.97;99678.75;5092526;28;20202;-67
2023/09/30 03:53:52;;;;;;;2.37;1.80;;;;;;;19.74;68.83;99683.13;5093505;28;20289;-67
2023/09/30 03:56:19;;;;;;;1.90;1.80;;;;;;;19.73;69.43;99676.25;5093414;28;20671;-67
2023/09/30 03:58:48;;;;;;;2.07;1.97;;;;;;;19.73;69.07;99680.63;5088834;28;20580;-67
2023/09/30 04:01:16;;;;;;;1.83;1.73;;;;;;;19.72;69.36;99685.00;5082007;28;20198;-67
2023/09/30 04:03:44;;;;;;;1.97;1.87;;;;;;;19.71;68.52;99683.31;5091055;28;20195;-67
2023/09/30 04:06:11;;;;;;;5.27;1.50;;;;;;;19.58;68.38;99672.00;5091920;28;20741;-67
2023/09/30 04:08:38;;;;;;;1.87;1.77;;;;;;;19.62;68.80;99681.28;5093413;28;20232;-67
2023/09/30 04:11:05;;;;;;;2.53;1.93;;;;;;;19.59;68.52;99673.69;5093861;28;20251;-67
2023/09/30 04:13:33;;;;;;;2.53;1.83;;;;;;;19.51;68.69;99686.34;5092265;28;20199;-67
2023/09/30 04:16:01;;;;;;;6.20;2.70;;;;;;;19.43;69.14;99693.78;5092258;28;20219;-66
2023/09/30 04:18:28;;;;;;;1.57;1.40;;;;;;;19.33;69.75;99692.63;5092182;28;20205;-66
2023/09/30 04:20:55;;;;;;;3.43;1.77;;;;;;;19.24;70.64;99694.03;5091878;28;20233;-66
2023/09/30 04:23:22;;;;;;;2.27;2.17;;;;;;;19.04;71.33;99685.75;5092882;28;20707;-66
2023/09/30 04:25:49;;;;;;;1.73;1.63;;;;;;;18.87;72.32;99694.56;5091558;28;20697;-66
2023/09/30 04:28:20;;;;;;;1.97;1.87;;;;;;;18.82;73.02;99700.03;5086106;28;20213;-66
2023/09/30 04:30:48;;;;;;;1.87;1.77;;;;;;;18.78;73.90;99708.09;5090988;28;20205;-66
2023/09/30 04:33:17;;;;;;;1.77;1.67;;;;;;;18.74;74.88;99699.63;5092154;28;20205;-66
2023/09/30 04:35:45;;;;;;;1.93;1.83;;;;;;;18.67;75.85;99697.50;5091084;28;20196;-66
2023/09/30 04:38:13;;;;;;;2.00;1.90;;;;;;;18.57;76.48;99699.81;5091075;28;20748;-66
2023/09/30 04:40:39;;;;;;;2.00;1.77;;;;;;;18.49;76.07;99704.56;5092181;28;20207;-66
2023/09/30 04:43:06;;;;;;;1.80;1.70;;;;;;;18.48;75.94;99697.69;5091640;28;20216;-66
2023/09/30 04:45:33;;;;;;;8.47;1.90;;;;;;;18.49;75.72;99703.72;5090609;28;20219;-65
2023/09/30 04:48:01;;;;;;;2.37;2.17;;;;;;;18.48;75.39;99697.69;5090099;28;20207;-66
2023/09/30 04:50:30;;;;;;;2.20;2.10;;;;;;;18.48;75.29;99708.06;5090521;28;20203;-66
2023/09/30 04:52:57;;;;;;;1.90;1.80;;;;;;;18.51;75.90;99710.56;5089255;28;20674;-66
2023/09/30 04:55:24;;;;;;;2.10;1.67;;;;;;;18.54;75.83;99707.78;5088494;28;20206;-66
2023/09/30 04:57:51;;;;;;;2.20;2.10;;;;;;;18.58;75.47;99718.81;5091466;28;20196;-66
2023/09/30 05:00:24;;;;;;;2.67;2.07;;;;;;;18.44;74.44;99722.19;5086371;28;20215;-65
2023/09/30 05:02:52;;;;;;;1.80;1.70;;;;;;;18.01;75.98;99728.09;5088295;28;20207;-65
2023/09/30 05:05:19;;;;;;;2.47;1.73;;;;;;;17.84;76.57;99732.44;5082781;28;20224;-66
2023/09/30 05:07:48;;;;;;;2.20;2.07;;;;;;;17.87;76.82;99730.63;5084520;28;20261;-66
2023/09/30 05:10:16;;;;;;;2.53;2.33;;;;;;;17.94;77.01;99731.94;5081952;28;20200;-66
2023/09/30 05:12:45;;;;;;;2.07;1.97;;;;;;;17.96;76.81;99724.94;5084304;28;20196;-66
2023/09/30 05:15:15;;;;;;;2.43;2.27;;;;;;;18.04;76.45;99727.91;5089259;28;20207;-66
2023/09/30 05:17:43;;;;;;;2.27;2.17;;;;;;;18.14;76.40;99729.09;5086623;28;20254;-66
2023/09/30 05:20:12;;;;;;;2.27;2.13;;;;;;;18.22;76.07;99726.91;5087055;28;20237;-66
2023/09/30 05:22:40;;;;;;;2.07;1.97;;;;;;;18.29;76.06;99723.03;5087025;28;20204;-66
2023/09/30 05:25:09;;;;;;;2.30;2.20;;;;;;;18.42;76.14;99718.81;5088335;28;20282;-66
2023/09/30 05:27:35;;;;;;;1.97;1.90;;;;;;;18.59;75.53;99725.66;5085902;28;20200;-66
2023/09/30 05:30:02;;;;;;;2.17;2.07;;;;;;;18.71;74.99;99733.59;5088291;28;20663;-66
2023/09/30 05:32:29;;;;;;;2.03;1.87;;;;;;;18.85;73.96;99733.63;5089056;28;20616;-66
2023/09/30 05:34:56;;;;;;;2.47;2.27;;;;;;;19.04;73.60;99737.72;5083192;28;20226;-66
2023/09/30 05:37:22;;;;;;;1.97;1.73;;;;;;;19.19;73.37;99739.44;5089206;28;20637;-66
2023/09/30 05:39:49;;;;;;;2.13;2.00;;;;;;;19.32;72.39;99742.97;5088605;28;20721;-66
2023/09/30 05:42:18;;;;;;;2.33;2.23;;;;;;;19.40;72.58;99748.56;5090313;28;20292;-62
2023/09/30 05:44:45;;;;;;;2.80;1.93;;;;;;;19.58;72.51;99749.22;5090948;28;20251;-63
2023/09/30 05:47:12;;;;;;;3.90;1.93;;;;;;;19.71;71.75;99750.94;5091111;28;20636;-62
2023/09/30 05:49:39;;;;;;;2.00;1.90;;;;;;;19.90;71.19;99750.66;5088478;28;20198;-63
2023/09/30 05:52:06;;;;;;;1.77;1.67;;;;;;;19.98;71.03;99726.72;5089718;28;20293;-63
2023/09/30 05:54:33;;;;;;;2.17;2.03;;;;;;;20.13;71.57;99737.00;5089511;28;20285;-63
2023/09/30 05:57:00;;;;;;;1.90;1.80;;;;;;;20.31;71.13;99748.03;5090132;28;20611;-63
2023/09/30 05:59:28;;;;;;;2.47;1.87;;;;;;;20.48;70.91;99742.59;5090989;28;20204;-63
2023/09/30 06:01:55;;;;;;;2.47;2.37;;;;;;;20.63;70.18;99744.19;5088820;28;20580;-63
2023/09/30 06:04:22;;;;;;;1.70;1.70;;;;;;;20.77;69.96;99748.47;5084946;28;20231;-63
2023/09/30 06:06:49;;;;;;;1.60;1.60;;;;;;;20.91;68.24;99748.38;5088020;28;20203;-64
2023/09/30 06:09:16;;;;;;;1.83;1.73;;;;;;;21.02;67.69;99750.28;5088506;28;20227;-65
2023/09/30 06:11:43;;;;;;;1.90;1.80;;;;;;;21.05;67.96;99756.13;5086500;28;20224;-64
2023/09/30 06:14:09;;;;;;;2.00;1.90;;;;;;;21.11;67.99;99747.91;5090358;28;20195;-64
2023/09/30 06:16:38;;;;;;;2.97;2.30;;;;;;;21.12;66.96;99748.75;5090425;28;20260;-64
2023/09/30 06:19:06;;;;;;;1.63;1.57;;;;;;;21.14;67.11;99746.88;5082715;28;20302;-64
2023/09/30 06:21:34;;;;;;;3.73;1.70;;;;;;;21.08;67.67;99731.59;5088910;28;20210;-65
2023/09/30 06:24:01;;;;;;;1.87;1.77;;;;;;;21.34;67.64;99747.19;5086783;28;20362;-65
2023/09/30 06:26:29;;;;;;;2.37;2.17;;;;;;;21.49;64.68;99745.28;5090109;28;20222;-64
2023/09/30 06:28:56;;;;;;;1.70;1.60;;;;;;;21.65;62.58;99748.47;5088902;28;20217;-65
2023/09/30 06:31:24;;;;;;;1.60;1.50;;;;;;;21.73;62.92;99745.34;5089338;28;20667;-65
2023/09/30 06:33:52;;;;;;;2.37;1.53;;;;;;;21.85;60.89;99745.31;5088266;28;20695;-65
2023/09/30 06:36:20;;;;;;;3.47;2.40;;;;;;;21.95;62.24;99755.97;5082200;28;20246;-64
2023/09/30 06:38:50;;;;;;;2.13;1.93;;;;;;;22.00;61.62;99753.88;5085536;28;20207;-64
2023/09/30 06:41:17;;;;;;;1.60;1.50;;;;;;;22.00;59.63;99745.22;5088297;28;20233;-64
2023/09/30 06:43:44;;;;;;;2.07;1.60;;;;;;;22.09;59.57;99757.59;5088622;28;20231;-68
2023/09/30 06:46:12;;;;;;;2.33;2.00;;;;;;;22.15;59.51;99757.16;5090069;28;20219;-66
2023/09/30 06:48:41;;;;;;;1.23;1.23;;;;;;;22.22;59.98;99747.94;5085970;28;20223;-65
2023/09/30 06:51:15;;;;;;;4.70;1.50;;;;;;;22.33;58.72;99745.34;5090131;28;20199;-66
2023/09/30 06:53:41;;;;;;;1.73;1.73;;;;;;;22.38;59.29;99746.72;5088488;28;20643;-65
2023/09/30 06:56:08;;;;;;;1.97;1.87;;;;;;;22.49;57.71;99740.69;5088960;28;20206;-65
2023/09/30 06:58:35;;;;;;;3.77;1.60;;;;;;;22.62;57.07;99751.88;5088530;28;20582;-66
2023/09/30 07:01:02;;;;;;;3.63;2.10;;;;;;;22.71;56.66;99751.25;5087428;28;20195;-66
2023/09/30 07:03:30;;;;;;;1.70;1.70;;;;;;;22.79;57.17;99755.91;5086714;28;20199;-66
2023/09/30 07:06:00;;;;;;;1.90;1.80;;;;;;;22.92;57.47;99751.41;5088488;28;20246;-66
2023/09/30 07:08:29;;;;;;;2.30;2.20;;;;;;;23.13;56.90;99751.59;5088405;28;20235;-66
2023/09/30 07:10:56;;;;;;;6.97;1.70;;;;;;;23.28;53.92;99755.63;5089754;28;20206;-66
2023/09/30 07:13:23;;;;;;;2.10;2.00;;;;;;;23.40;54.66;99759.94;5088962;28;20620;-66
2023/09/30 07:15:50;;;;;;;1.90;1.53;;;;;;;23.52;55.32;99765.06;5086800;28;20198;-66
2023/09/30 07:18:17;;;;;;;1.73;1.40;;;;;;;23.71;53.51;99759.25;5088550;28;20199;-66
2023/09/30 07:20:44;;;;;;;1.90;1.80;;;;;;;23.87;53.03;99764.94;5088246;28;20602;-66
2023/09/30 07:23:13;;;;;;;2.37;1.83;;;;;;;24.02;51.49;99752.41;5088426;28;20207;-66
2023/09/30 07:25:41;;;;;;;1.70;1.60;;;;;;;24.14;51.64;99761.94;5088280;28;20242;-66
2023/09/30 07:28:11;;;;;;;5.67;1.80;;;;;;;24.33;52.13;99761.31;5086010;28;20658;-66
2023/09/30 07:30:38;;;;;;;1.20;1.20;;;;;;;24.47;50.09;99755.75;5088314;28;20208;-66
2023/09/30 07:33:05;;;;;;;2.20;1.83;;;;;;;24.67;49.58;99760.19;5086994;28;20587;-76
2023/09/30 07:35:32;;;;;;;1.30;1.30;;;;;;;24.85;48.36;99761.31;5087616;28;20206;-67
2023/09/30 07:37:59;;;;;;;1.85;1.67;;;;;;;24.97;48.18;99768.19;5088066;28;20439;-65
2023/09/30 07:40:25;;;;;;;1.20;1.20;;;;;;;25.05;49.43;99764.88;5089206;28;20590;-67
2023/09/30 07:42:54;;;;;;;2.00;1.90;;;;;;;25.16;47.17;99764.00;5091577;28;20199;-67
2023/09/30 07:45:21;;;;;;;1.50;1.40;;;;;;;25.22;48.10;99750.34;5091377;28;20223;-67
2023/09/30 07:51:12;;;;;;;1.73;1.60;;;;;;;25.65;46.55;99763.28;5091488;28;20236;-67
2023/09/30 07:53:40;;;;;;;1.17;1.17;;;;;;;25.76;48.03;99766.63;5091394;28;20207;-67
2023/09/30 07:56:06;;;;;;;4.57;1.33;;;;;;;25.88;45.75;99765.56;5091403;28;20732;-67
2023/09/30 07:58:34;;;;;;;1.77;1.60;;;;;;;25.97;45.92;99762.16;5090911;28;20587;-67
2023/09/30 08:01:01;;;;;;;1.53;1.43;;;;;;;26.14;45.51;99762.47;5091072;28;20207;-67
2023/09/30 08:03:28;;;;;;;1.17;1.17;;;;;;;26.27;44.83;99760.44;5088272;28;20591;-67
2023/09/30 08:05:55;;;;;;;1.67;1.30;;;;;;;26.35;46.70;99760.56;5085039;28;20273;-67
2023/09/30 08:08:22;;;;;;;1.60;1.60;;;;;;;26.46;44.97;99755.19;5080591;28;20232;-67
2023/09/30 08:10:49;;;;;;;5.17;1.87;;;;;;;26.57;45.60;99752.41;5073185;28;20204;-67
2023/09/30 08:13:17;;;;;;;1.47;1.37;;;;;;;26.61;43.84;99756.41;5082055;28;20706;-67
2023/09/30 08:15:45;;;;;;;2.03;1.83;;;;;;;26.67;45.23;99747.97;5074855;28;20277;-67
2023/09/30 08:18:12;;;;;;;6.43;1.80;;;;;;;26.88;44.93;99761.81;5081576;28;20253;-67
2023/09/30 08:20:38;;;;;;;1.50;1.40;;;;;;;27.00;42.17;99755.44;5085934;28;20207;-67
2023/09/30 08:23:05;;;;;;;1.77;1.67;;;;;;;27.11;42.39;99751.78;5092012;28;20203;-66
2023/09/30 08:25:32;;;;;;;1.97;1.50;;;;;;;27.17;41.59;99760.94;5092700;28;20747;-67
2023/09/30 08:27:59;;;;;;;5.80;1.37;;;;;;;27.23;42.80;99755.09;5077142;28;20246;-67
2023/09/30 08:30:25;;;;;;;6.27;1.60;;;;;;;27.37;42.89;99762.50;5074683;28;20257;-67
2023/09/30 08:32:53;;;;;;;1.97;1.87;;;;;;;27.55;42.78;99755.56;5081325;28;20591;-67
2023/09/30 08:35:20;;;;;;;1.47;1.37;;;;;;;27.69;40.68;99757.69;5088228;28;20202;-67
2023/09/30 08:37:47;;;;;;;1.33;1.30;;;;;;;27.84;39.04;99766.78;5094403;28;20207;-67
2023/09/30 08:40:14;;;;;;;5.40;0.97;;;;;;;27.94;38.16;99767.56;5081624;28;20207;-67
2023/09/30 08:42:41;;;;;;;1.20;1.20;;;;;;;28.03;38.99;99760.56;5074087;28;20743;-67
2023/09/30 08:45:14;;;;;;;1.10;1.10;;;;;;;28.08;39.38;99759.16;5085677;28;20290;-67
2023/09/30 08:47:41;;;;;;;1.13;1.10;;;;;;;28.15;38.37;99770.78;5090990;28;20848;-67
2023/09/30 08:50:10;;;;;;;0.80;0.80;;;;;;;28.20;40.42;99761.59;5088595;28;20253;-67
2023/09/30 08:52:38;;;;;;;1.00;1.00;;;;;;;28.34;39.44;99761.06;5094269;28;20200;-67
2023/09/30 08:55:07;;;;;;;1.40;1.30;;;;;;;28.37;38.23;99747.59;5093960;28;20210;-67
2023/09/30 08:57:37;;;;;;;1.00;1.00;;;;;;;28.42;38.83;99750.59;5094109;28;20235;-66
2023/09/30 09:00:06;;;;;;;1.50;1.30;;;;;;;28.57;39.49;99743.78;5093717;28;20199;-66
2023/09/30 09:02:35;;;;;;;0.80;0.80;;;;;;;28.69;36.73;99740.00;5093645;28;20195;-66
2023/09/30 09:05:02;;;;;;;1.52;1.30;;;;;;;28.74;37.26;99745.63;5093462;28;20915;-67
2023/09/30 09:07:31;;;;;;;1.00;1.00;;;;;;;28.76;39.01;99750.78;5073338;28;20235;-66
2023/09/30 09:10:05;;;;;;;0.83;0.83;;;;;;;28.83;38.37;99744.69;5092649;28;20587;-67
2023/09/30 09:12:33;;;;;;;1.20;1.20;;;;;;;28.94;37.61;99741.81;5086836;28;20187;-67
2023/09/30 09:14:59;;;;;;;0.80;0.80;;;;;;;29.02;35.65;99741.84;5093829;28;20586;-67
2023/09/30 09:17:41;;;;;;;1.92;1.50;;;;;;;29.04;35.39;99732.00;5093606;28;20253;-68
2023/09/30 09:20:10;;;;;;;1.03;1.03;;;;;;;29.01;35.80;99732.31;5093332;28;20230;-66
2023/09/30 09:22:42;;;;;;;1.08;1.08;;;;;;;29.07;34.93;99742.25;5093743;28;20696;-67
2023/09/30 09:25:10;;;;;;;1.10;1.10;;;;;;;29.09;35.67;99728.88;5093377;28;20268;-67
2023/09/30 09:27:37;;;;;;;1.02;1.02;;;;;;;29.14;34.23;99735.31;5093614;28;20199;-66
2023/09/30 09:30:22;;;;;;;0.80;0.80;;;;;;;29.26;34.43;99729.81;5093404;28;20245;-67
2023/09/30 09:32:59;;;;;;;0.80;0.80;;;;;;;29.36;33.51;99730.53;5093253;28;20663;-67
2023/09/30 09:35:28;;;;;;;1.17;1.08;;;;;;;29.40;32.68;99721.31;5092523;28;20195;-67
2023/09/30 09:37:58;;;;;;;0.90;0.90;;;;;;;29.47;37.39;99722.31;5092928;28;20253;-67
2023/09/30 09:40:26;;;;;;;1.08;1.08;;;;;;;29.52;35.73;99720.03;5093311;28;20640;-67
2023/09/30 09:42:54;;;;;;;1.23;1.17;;;;;;;29.55;34.07;99719.72;5092971;28;20200;-67
2023/09/30 09:45:23;;;;;;;0.80;0.80;;;;;;;29.52;33.69;99717.41;5093023;28;20238;-66
2023/09/30 09:47:51;;;;;;;1.00;1.00;;;;;;;29.36;31.79;99720.81;5092699;28;20191;-66
2023/09/30 09:50:19;;;;;;;2.90;1.02;;;;;;;29.32;32.50;99718.63;5092615;28;20239;-66
2023/09/30 09:52:49;;;;;;;0.85;0.85;;;;;;;29.39;31.81;99693.22;5093091;28;20241;-66
2023/09/30 09:55:19;;;;;;;1.50;1.50;;;;;;;29.59;33.36;99711.31;5092379;28;20231;-67
2023/09/30 09:57:47;;;;;;;1.48;1.00;;;;;;;29.62;33.40;99702.25;5085956;28;20834;-67
2023/09/30 10:00:16;;;;;;;0.98;0.98;;;;;;;29.75;30.65;99705.25;5092889;28;20242;-66
2023/09/30 10:02:43;;;;;;;1.88;1.20;;;;;;;29.86;31.38;99697.03;5093331;28;20214;-66
2023/09/30 10:05:11;;;;;;;1.38;1.30;;;;;;;29.93;33.76;99690.13;5092568;28;20252;-66
2023/09/30 10:07:43;;;;;;;1.27;1.17;;;;;;;29.99;31.25;99693.94;5092573;28;20280;-66
2023/09/30 10:10:15;;;;;;;1.75;0.82;;;;;;;30.07;30.59;99686.84;5092266;28;20191;-66
2023/09/30 10:12:43;;;;;;;1.05;0.95;;;;;;;30.01;28.84;99684.88;5091345;28;20211;-67
2023/09/30 10:15:43;;;;;;;0.90;0.90;;;;;;;29.54;30.79;99681.06;5092187;28;20671;-66
2023/09/30 10:18:11;;;;;;;1.00;1.00;;;;;;;29.63;30.60;99680.09;5091992;28;20199;-67
2023/09/30 10:20:41;;;;;;;1.17;1.17;;;;;;;29.85;30.28;99676.91;5091842;28;20199;-66
2023/09/30 10:23:26;;;;;;;0.95;0.95;;;;;;;29.87;30.43;99674.09;5092419;28;20568;-67
2023/09/30 10:25:57;;;;;;;0.80;0.80;;;;;;;29.76;29.53;99646.09;5092168;28;20751;-67
2023/09/30 10:28:39;;;;;;;1.00;1.00;;;;;;;29.90;29.43;99655.25;5091676;28;20202;-66
2023/09/30 10:31:17;;;;;;;0.98;0.98;;;;;;;29.87;28.54;99653.78;5092128;28;20203;-67
2023/09/30 10:34:20;;;;;;;1.00;1.00;;;;;;;29.99;30.46;99662.19;5092112;28;20203;-67
2023/09/30 10:36:50;;;;;;;1.42;1.42;;;;;;;29.92;29.45;99658.59;5091653;28;20671;-67
2023/09/30 10:39:55;;;;;;;1.05;1.05;;;;;;;29.91;29.58;99652.47;5091535;28;20207;-67
2023/09/30 10:43:03;;;;;;;1.17;1.17;;;;;;;30.11;32.65;99651.13;5086672;28;20203;-67
2023/09/30 10:45:44;;;;;;;1.05;1.00;;;;;;;30.11;29.92;99629.19;5086164;28;20260;-67
2023/09/30 10:48:34;;;;;;;1.35;1.35;;;;;;;30.21;28.42;99643.88;5091526;28;20556;-67
2023/09/30 10:51:02;;;;;;;1.10;1.10;;;;;;;30.24;28.72;99633.97;5086851;28;20979;-71
2023/09/30 10:53:30;;;;;;;1.85;1.02;;;;;;;30.52;31.19;99637.94;5084344;28;20449;-72
2023/09/30 10:55:58;;;;;;;4.10;0.95;;;;;;;30.68;29.67;99640.56;5085413;28;20733;-72
2023/09/30 10:58:40;;;;;;;1.38;1.38;;;;;;;30.45;28.07;99635.13;5086598;28;20242;-71
2023/09/30 11:01:08;;;;;;;4.30;1.02;;;;;;;30.54;28.47;99633.28;5089858;28;20199;-71
2023/09/30 11:03:36;;;;;;;0.98;0.98;;;;;;;30.52;27.93;99630.00;5089663;28;20203;-72
2023/09/30 11:06:03;;;;;;;1.40;1.30;;;;;;;30.64;29.18;99626.81;5089017;28;20564;-71
2023/09/30 11:08:31;;;;;;;9.98;1.65;;;;;;;30.63;27.70;99633.09;5086866;28;20794;-72
2023/09/30 11:11:00;;;;;;;1.10;1.10;;;;;;;30.60;30.93;99622.84;5088603;28;20567;-71
2023/09/30 11:13:34;;;;;;;1.10;0.93;;;;;;;30.52;28.82;99627.34;5086480;28;20745;-71
2023/09/30 11:16:02;;;;;;;0.90;0.90;;;;;;;30.44;28.81;99627.34;5087027;28;20689;-72
2023/09/30 11:18:31;;;;;;;1.55;1.45;;;;;;;30.45;28.59;99610.47;5088775;28;20191;-71
2023/09/30 11:21:10;;;;;;;1.02;1.02;;;;;;;30.56;28.68;99621.56;5089371;28;20200;-71
2023/09/30 11:23:37;;;;;;;1.33;1.33;;;;;;;30.64;29.60;99612.75;5089628;28;20259;-71
2023/09/30 11:26:05;;;;;;;1.02;1.02;;;;;;;30.59;28.14;99612.47;5089144;28;20741;-71
2023/09/30 11:28:40;;;;;;;1.20;1.10;;;;;;;30.61;28.68;99606.00;5089744;28;20238;-72
2023/09/30 11:31:10;;;;;;;2.28;1.30;;;;;;;30.62;28.59;99598.88;5089299;28;20194;-72
2023/09/30 11:33:51;;;;;;;1.20;1.20;;;;;;;30.74;27.66;99602.81;5088878;28;20215;-72
2023/09/30 11:36:19;;;;;;;1.05;1.05;;;;;;;30.84;29.02;99606.09;5090052;28;20568;-72
2023/09/30 11:38:47;;;;;;;1.55;1.20;;;;;;;30.93;27.68;99599.78;5089789;28;20195;-70
2023/09/30 11:41:14;;;;;;;0.93;0.93;;;;;;;30.77;27.44;99601.63;5089614;28;20242;-71
2023/09/30 11:44:00;;;;;;;1.10;1.10;;;;;;;30.75;27.63;99598.34;5090289;28;20203;-72